createdAt,value
2022-12-31T00:00:40.140Z,19.96
2022-12-31T00:05:35.088Z,20.09
2022-12-31T00:10:29.201Z,20.07
2022-12-31T00:15:22.638Z,20.05
2022-12-31T00:20:17.631Z,20.02
2022-12-31T00:25:11.306Z,19.91
2022-12-31T00:30:06.801Z,19.96
2022-12-31T00:35:00.454Z,19.85
2022-12-31T00:39:54.608Z,19.93
2022-12-31T00:44:48.339Z,19.84
2022-12-31T00:49:41.660Z,19.90
2022-12-31T00:54:35.756Z,19.90
2022-12-31T00:59:29.640Z,19.85
2022-12-31T01:04:21.973Z,19.85
2022-12-31T01:09:16.595Z,19.84
2022-12-31T01:14:29.843Z,19.83
2022-12-31T01:19:26.631Z,19.81
2022-12-31T01:24:20.263Z,19.65
2022-12-31T01:29:15.786Z,19.76
2022-12-31T01:34:10.186Z,19.64
2022-12-31T01:39:05.596Z,19.66
2022-12-31T01:44:02.217Z,19.71
2022-12-31T01:49:09.349Z,19.68
2022-12-31T01:54:04.396Z,19.58
2022-12-31T01:58:58.221Z,19.62
2022-12-31T02:03:51.402Z,19.60
2022-12-31T02:08:49.585Z,19.56
2022-12-31T02:13:43.687Z,19.54
2022-12-31T02:18:50.417Z,19.51
2022-12-31T02:23:56.423Z,19.52
2022-12-31T02:29:01.052Z,19.49
2022-12-31T02:34:32.073Z,19.48
2022-12-31T02:39:25.301Z,19.47
2022-12-31T02:44:22.347Z,19.45
2022-12-31T02:49:32.205Z,19.43
2022-12-31T02:55:00.862Z,19.41
2022-12-31T03:00:20.322Z,19.36
2022-12-31T03:05:16.180Z,19.27
2022-12-31T03:10:10.407Z,19.35
2022-12-31T03:15:06.725Z,19.26
2022-12-31T03:20:18.170Z,19.33
2022-12-31T03:25:34.949Z,19.12
2022-12-31T03:30:28.821Z,19.30
2022-12-31T03:35:23.182Z,19.29
2022-12-31T03:40:17.326Z,19.15
2022-12-31T03:45:11.533Z,19.24
2022-12-31T03:50:06.792Z,19.22
2022-12-31T03:54:59.800Z,19.22
2022-12-31T03:59:52.804Z,19.00
2022-12-31T04:04:45.909Z,19.11
2022-12-31T04:09:39.359Z,19.19
2022-12-31T04:14:32.252Z,19.13
2022-12-31T04:19:25.802Z,19.05
2022-12-31T04:24:19.306Z,19.11
2022-12-31T04:29:12.339Z,19.03
2022-12-31T04:34:05.809Z,19.04
2022-12-31T04:38:59.543Z,19.09
2022-12-31T04:43:56.560Z,19.07
2022-12-31T04:48:50.096Z,19.08
2022-12-31T04:53:43.674Z,18.87
2022-12-31T04:58:38.857Z,19.06
2022-12-31T05:03:32.509Z,18.99
2022-12-31T05:08:26.434Z,19.03
2022-12-31T05:13:19.666Z,19.03
2022-12-31T05:18:12.267Z,19.02
2022-12-31T05:23:05.645Z,19.00
2022-12-31T05:27:59.561Z,19.00
2022-12-31T05:32:53.140Z,19.00
2022-12-31T05:37:46.577Z,18.93
2022-12-31T05:42:40.221Z,18.89
2022-12-31T05:47:34.010Z,18.85
2022-12-31T05:52:28.522Z,18.96
2022-12-31T05:57:22.018Z,18.86
2022-12-31T06:02:15.930Z,18.87
2022-12-31T06:07:09.426Z,18.92
2022-12-31T06:12:02.967Z,18.94
2022-12-31T06:16:56.063Z,18.89
2022-12-31T06:21:49.131Z,18.86
2022-12-31T06:26:43.157Z,18.99
2022-12-31T06:31:37.116Z,19.00
2022-12-31T06:36:30.646Z,19.00
2022-12-31T06:41:33.545Z,19.04
2022-12-31T06:46:27.779Z,18.95
2022-12-31T06:51:22.589Z,18.88
2022-12-31T06:56:16.939Z,18.93
2022-12-31T07:01:34.389Z,19.01
2022-12-31T07:06:58.916Z,18.91
2022-12-31T07:12:27.620Z,19.04
2022-12-31T07:18:10.357Z,18.95
2022-12-31T07:23:04.138Z,19.07
2022-12-31T07:28:17.145Z,19.09
2022-12-31T07:33:19.770Z,19.01
2022-12-31T07:38:27.378Z,19.09
2022-12-31T07:43:39.379Z,19.11
2022-12-31T07:48:34.081Z,19.13
2022-12-31T07:53:28.513Z,19.13
2022-12-31T07:58:28.052Z,19.13
2022-12-31T08:03:49.194Z,19.14
2022-12-31T08:08:41.437Z,19.16
2022-12-31T08:13:36.622Z,19.15
2022-12-31T08:18:31.478Z,19.05
2022-12-31T08:23:33.966Z,19.17
2022-12-31T08:28:44.630Z,19.22
2022-12-31T08:34:00.693Z,19.20
2022-12-31T08:39:17.802Z,19.11
2022-12-31T08:44:29.209Z,19.21
2022-12-31T08:49:23.037Z,19.08
2022-12-31T08:54:17.416Z,19.20
2022-12-31T08:59:34.478Z,19.11
2022-12-31T09:04:49.424Z,19.12
2022-12-31T09:09:57.581Z,19.14
2022-12-31T09:15:09.454Z,19.07
2022-12-31T09:20:03.953Z,19.20
2022-12-31T09:24:58.669Z,19.12
2022-12-31T09:30:01.356Z,19.15
2022-12-31T09:35:12.682Z,19.29
2022-12-31T09:40:23.987Z,19.32
2022-12-31T09:45:31.781Z,19.39
2022-12-31T09:50:38.132Z,19.34
2022-12-31T09:55:34.305Z,19.25
2022-12-31T10:00:41.755Z,19.19
2022-12-31T10:05:43.775Z,19.24
2022-12-31T10:11:14.634Z,19.20
2022-12-31T10:16:16.402Z,19.22
2022-12-31T10:21:43.227Z,19.10
2022-12-31T10:26:53.104Z,19.05
2022-12-31T10:31:58.762Z,19.04
2022-12-31T10:37:04.424Z,18.88
2022-12-31T10:42:18.482Z,19.06
2022-12-31T10:47:32.361Z,19.01
2022-12-31T10:52:43.403Z,18.94
2022-12-31T10:57:50.939Z,18.98
2022-12-31T11:03:02.224Z,18.91
2022-12-31T11:08:03.978Z,19.06
2022-12-31T11:13:15.667Z,19.18
2022-12-31T11:18:27.537Z,19.22
2022-12-31T11:23:37.146Z,19.20
2022-12-31T11:28:40.157Z,19.27
2022-12-31T11:33:57.677Z,19.32
2022-12-31T11:39:28.907Z,19.33
2022-12-31T11:44:53.813Z,19.42
2022-12-31T11:50:23.965Z,19.26
2022-12-31T11:55:36.395Z,19.40
2022-12-31T12:00:33.778Z,19.51
2022-12-31T12:06:06.891Z,19.52
2022-12-31T12:11:10.308Z,19.43
2022-12-31T12:16:24.881Z,19.55
2022-12-31T12:21:21.445Z,19.53
2022-12-31T12:26:38.728Z,19.52
2022-12-31T12:31:34.665Z,19.55
2022-12-31T12:36:28.994Z,19.41
2022-12-31T12:41:27.384Z,19.56
2022-12-31T12:46:28.626Z,19.61
2022-12-31T12:51:40.409Z,19.62
2022-12-31T12:57:01.695Z,19.53
2022-12-31T13:02:09.605Z,19.47
2022-12-31T13:07:32.082Z,19.50
2022-12-31T13:12:56.851Z,19.51
2022-12-31T13:18:35.509Z,19.51
2022-12-31T13:23:59.767Z,19.47
2022-12-31T13:28:55.275Z,19.49
2022-12-31T13:33:55.940Z,19.57
2022-12-31T13:39:16.595Z,19.55
2022-12-31T13:44:15.833Z,19.57
2022-12-31T13:49:24.473Z,19.58
2022-12-31T13:54:47.404Z,19.51
2022-12-31T13:59:47.354Z,19.52
2022-12-31T14:04:47.858Z,19.55
2022-12-31T14:09:41.961Z,19.44
2022-12-31T14:14:54.160Z,19.57
2022-12-31T14:19:58.024Z,19.64
2022-12-31T14:24:52.464Z,19.61
2022-12-31T14:30:05.640Z,19.49
2022-12-31T14:35:23.599Z,19.61
2022-12-31T14:40:29.548Z,19.55
2022-12-31T14:45:48.465Z,19.66
2022-12-31T14:50:47.470Z,19.67
2022-12-31T14:55:48.430Z,19.69
2022-12-31T15:00:52.267Z,19.74
2022-12-31T15:05:51.977Z,19.70
2022-12-31T15:10:54.217Z,19.73
2022-12-31T15:15:59.848Z,19.76
2022-12-31T15:21:30.703Z,19.63
2022-12-31T15:26:25.010Z,19.77
2022-12-31T15:31:20.424Z,19.62
2022-12-31T15:36:13.716Z,19.71
2022-12-31T15:42:10.183Z,19.73
2022-12-31T15:47:03.364Z,19.74
2022-12-31T15:52:06.571Z,19.70
2022-12-31T15:57:03.065Z,19.62
2022-12-31T16:02:01.605Z,19.65
2022-12-31T16:07:00.024Z,19.70
2022-12-31T16:11:54.863Z,19.78
2022-12-31T16:16:59.633Z,19.74
2022-12-31T16:21:57.628Z,19.90
2022-12-31T16:26:54.205Z,19.81
2022-12-31T16:31:50.157Z,19.77
2022-12-31T16:36:54.796Z,19.90
2022-12-31T16:41:48.698Z,19.87
2022-12-31T16:46:42.513Z,19.80
2022-12-31T16:51:38.234Z,19.81
2022-12-31T16:56:38.710Z,19.80
2022-12-31T17:01:36.394Z,19.89
2022-12-31T17:06:36.144Z,19.79
2022-12-31T17:11:31.443Z,19.92
2022-12-31T17:16:26.760Z,19.93
2022-12-31T17:21:24.687Z,19.86
2022-12-31T17:26:28.950Z,19.92
2022-12-31T17:31:37.332Z,19.96
2022-12-31T17:36:31.006Z,19.95
2022-12-31T17:41:27.943Z,19.91
2022-12-31T17:46:21.983Z,19.85
2022-12-31T17:51:15.427Z,19.84
2022-12-31T17:56:18.328Z,19.84
2022-12-31T18:01:16.470Z,19.87
2022-12-31T18:06:16.634Z,19.85
2022-12-31T18:11:33.230Z,19.99
2022-12-31T18:16:27.267Z,19.93
2022-12-31T18:21:45.308Z,19.94
2022-12-31T18:26:39.337Z,20.04
2022-12-31T18:31:33.047Z,19.88
2022-12-31T18:36:28.115Z,20.10
2022-12-31T18:41:25.267Z,20.15
2022-12-31T18:46:23.484Z,20.13
2022-12-31T18:51:40.156Z,20.02
2022-12-31T18:56:34.472Z,20.13
2022-12-31T19:01:35.900Z,20.02
2022-12-31T19:06:30.390Z,20.13
2022-12-31T19:11:24.394Z,20.15
2022-12-31T19:16:18.760Z,20.05
2022-12-31T19:21:36.201Z,20.13
2022-12-31T19:26:30.431Z,20.11
2022-12-31T19:31:23.687Z,20.04
2022-12-31T19:36:18.061Z,20.07
2022-12-31T19:41:21.419Z,20.04
2022-12-31T19:46:15.899Z,20.15
2022-12-31T19:51:30.763Z,20.05
2022-12-31T19:56:41.440Z,20.04
2022-12-31T20:01:34.880Z,20.16
2022-12-31T20:06:29.028Z,20.13
2022-12-31T20:11:24.100Z,20.06
2022-12-31T20:16:21.435Z,20.07
2022-12-31T20:21:23.764Z,20.09
2022-12-31T20:26:17.019Z,20.09
2022-12-31T20:31:12.502Z,20.05
2022-12-31T20:36:08.938Z,20.04
2022-12-31T20:41:10.792Z,20.04
2022-12-31T20:46:16.507Z,20.08
2022-12-31T20:51:10.401Z,20.16
2022-12-31T20:56:08.299Z,20.15
2022-12-31T21:01:02.079Z,20.07
2022-12-31T21:05:56.292Z,20.04
2022-12-31T21:10:49.993Z,20.09
2022-12-31T21:15:44.270Z,20.16
2022-12-31T21:20:37.323Z,19.96
2022-12-31T21:25:30.120Z,20.14
2022-12-31T21:30:23.597Z,20.06
2022-12-31T21:40:32.326Z,20.15
2022-12-31T21:45:26.227Z,20.03
2022-12-31T21:50:20.341Z,20.12
2022-12-31T21:55:31.004Z,20.12
2022-12-31T22:00:43.479Z,19.98
2022-12-31T22:05:37.793Z,20.05
2022-12-31T22:10:37.314Z,20.08
2022-12-31T22:15:31.243Z,20.09
2022-12-31T22:20:28.144Z,20.08
2022-12-31T22:25:21.746Z,20.07
2022-12-31T22:30:15.363Z,20.07
2022-12-31T22:35:10.069Z,20.05
2022-12-31T22:40:04.275Z,20.07
2022-12-31T22:44:57.941Z,19.96
2022-12-31T22:49:51.340Z,19.92
2022-12-31T22:54:45.162Z,19.96
2022-12-31T22:59:39.326Z,20.05
2022-12-31T23:04:33.366Z,20.04
2022-12-31T23:09:44.690Z,19.85
2022-12-31T23:14:56.749Z,19.99
2022-12-31T23:20:06.987Z,19.92
2022-12-31T23:25:00.459Z,19.93
2022-12-31T23:29:53.616Z,19.91
2022-12-31T23:34:47.888Z,19.90
2022-12-31T23:39:40.471Z,19.89
2022-12-31T23:44:33.693Z,19.89
2022-12-31T23:49:27.408Z,19.94
2022-12-31T23:54:20.268Z,19.96
2022-12-31T23:59:13.896Z,19.84
